Time;durP1;ratioP1;P1;durP2;ratioP2;P2;SDS_P1;SDS_P2;PMS_P1;PMS_P2;Temp;Humidity;BMP_temperature;BMP_pressure;BME280_temperature;BME280_humidity;BME280_pressure;Samples;Min_cycle;Max_cycle;Signal;HPM_P1;HPM_P2
2021/03/16 00:04:15;;;;;;;0.80;0.80;;;;;;;3.06;71.17;97038.03;299395;329;63004;-59
2021/03/16 00:09:16;;;;;;;0.90;0.90;;;;;;;3.05;71.24;97029.19;299395;244;63009;-59
2021/03/16 00:14:17;;;;;;;0.80;0.80;;;;;;;3.10;70.99;97045.38;299395;202;63005;-62
2021/03/16 00:19:20;;;;;;;0.80;0.80;;;;;;;2.99;71.83;97051.59;299395;208;63008;-58
2021/03/16 00:24:22;;;;;;;0.77;0.77;;;;;;;2.93;71.75;97052.53;299395;216;63004;-64
2021/03/16 00:29:23;;;;;;;0.70;0.70;;;;;;;2.98;72.04;97055.31;299395;202;63009;-58
2021/03/16 00:34:24;;;;;;;0.70;0.70;;;;;;;3.02;71.82;97056.47;299395;197;63004;-60
2021/03/16 00:39:25;;;;;;;0.80;0.80;;;;;;;2.95;72.64;97061.97;299395;203;63009;-60
2021/03/16 00:44:26;;;;;;;0.70;0.70;;;;;;;2.86;72.23;97067.94;299395;335;63005;-60
2021/03/16 00:49:26;;;;;;;0.70;0.70;;;;;;;3.08;70.12;97074.28;299395;254;63009;-63
2021/03/16 00:54:28;;;;;;;0.70;0.70;;;;;;;3.08;68.75;97066.25;299395;202;63004;-61
2021/03/16 00:59:32;;;;;;;0.70;0.70;;;;;;;2.99;68.51;97057.75;299395;213;63009;-60
2021/03/16 01:04:32;;;;;;;0.70;0.70;;;;;;;3.02;67.45;97056.47;299417;294;63005;-62
2021/03/16 01:09:34;;;;;;;0.80;0.80;;;;;;;2.96;67.58;97068.97;299395;218;63009;-58
2021/03/16 01:14:38;;;;;;;0.80;0.80;;;;;;;2.94;67.39;97078.28;299395;205;63005;-61
2021/03/16 01:19:39;;;;;;;0.70;0.70;;;;;;;2.91;67.38;97078.78;299417;210;63009;-61
2021/03/16 01:24:40;;;;;;;0.80;0.80;;;;;;;2.94;66.44;97079.09;299395;197;63010;-62
2021/03/16 01:29:40;;;;;;;0.70;0.70;;;;;;;2.96;66.89;97084.22;299395;222;63009;-63
2021/03/16 01:34:41;;;;;;;0.70;0.70;;;;;;;2.93;67.31;97085.53;299395;199;63005;-61
2021/03/16 01:39:44;;;;;;;0.70;0.70;;;;;;;2.90;68.45;97093.22;299395;211;63009;-67
2021/03/16 01:44:45;;;;;;;0.70;0.70;;;;;;;2.84;69.69;97096.84;299395;199;63005;-61
2021/03/16 01:49:46;;;;;;;0.80;0.80;;;;;;;2.83;70.62;97089.87;299395;267;63009;-60
2021/03/16 01:54:48;;;;;;;0.75;0.75;;;;;;;2.85;70.72;97099.28;299395;209;63004;-59
2021/03/16 01:59:50;;;;;;;0.80;0.80;;;;;;;2.81;71.55;97097.31;299395;222;63009;-65
2021/03/16 02:04:52;;;;;;;0.80;0.80;;;;;;;2.78;71.70;97106.66;299395;242;63013;-60
2021/03/16 02:10:10;;;;;;;0.80;0.80;;;;;;;2.74;71.83;97102.03;299395;245;63009;-62
2021/03/16 02:15:17;;;;;;;0.70;0.70;;;;;;;2.68;72.43;97099.25;299395;212;63005;-61
2021/03/16 02:21:08;;;;;;;0.80;0.80;;;;;;;2.65;72.44;97105.09;299395;227;63009;-62
2021/03/16 02:26:53;;;;;;;0.80;0.80;;;;;;;2.67;72.41;97102.97;299395;215;63004;-62
2021/03/16 02:32:03;;;;;;;1.05;1.05;;;;;;;2.65;72.61;97102.41;299395;220;63004;-60
2021/03/16 02:37:07;;;;;;;0.70;0.70;;;;;;;2.65;72.35;97110.44;299395;199;63009;-60
2021/03/16 02:42:10;;;;;;;0.70;0.70;;;;;;;2.66;72.12;97112.06;299395;224;63005;-63
2021/03/16 02:47:12;;;;;;;0.80;0.80;;;;;;;2.65;72.77;97114.97;299395;212;63009;-62
2021/03/16 02:52:16;;;;;;;0.77;0.77;;;;;;;2.57;73.32;97116.16;299395;212;63010;-62
2021/03/16 02:57:18;;;;;;;0.80;0.80;;;;;;;2.61;72.86;97120.00;299417;202;63009;-64
2021/03/16 03:02:20;;;;;;;1.00;1.00;;;;;;;2.55;73.33;97128.97;299395;206;63004;-62
2021/03/16 03:07:24;;;;;;;0.80;0.80;;;;;;;2.46;73.90;97125.03;299395;216;63009;-62
2021/03/16 03:12:25;;;;;;;0.70;0.70;;;;;;;2.41;74.50;97124.12;299377;318;125005;-63
2021/03/16 03:17:28;;;;;;;0.80;0.80;;;;;;;2.43;73.74;97112.09;299395;241;63009;-60
2021/03/16 03:22:44;;;;;;;0.70;0.70;;;;;;;2.38;74.12;97108.53;299395;231;63005;-58
2021/03/16 03:27:50;;;;;;;0.70;0.70;;;;;;;2.51;73.07;97125.13;299395;214;63009;-58
2021/03/16 03:32:54;;;;;;;0.70;0.70;;;;;;;2.47;72.99;97134.69;299395;211;63009;-56
2021/03/16 03:37:56;;;;;;;0.70;0.70;;;;;;;2.50;72.76;97150.28;299395;206;63009;-66
2021/03/16 03:43:00;;;;;;;0.85;0.85;;;;;;;2.39;73.99;97143.09;299395;205;63005;-63
2021/03/16 03:48:05;;;;;;;0.80;0.80;;;;;;;2.33;74.11;97141.34;299417;202;63008;-64
2021/03/16 03:53:08;;;;;;;0.80;0.80;;;;;;;2.26;73.65;97165.56;299394;294;64009;-63
2021/03/16 03:58:09;;;;;;;0.80;0.80;;;;;;;2.35;72.20;97152.66;299395;219;63009;-60
2021/03/16 04:03:11;;;;;;;0.95;0.95;;;;;;;2.40;71.63;97160.81;299395;220;63005;-60
2021/03/16 04:08:12;;;;;;;0.80;0.80;;;;;;;2.34;72.06;97167.91;299395;224;63009;-64
2021/03/16 04:13:13;;;;;;;0.70;0.70;;;;;;;2.35;71.74;97168.72;299395;197;63005;-63
2021/03/16 04:18:14;;;;;;;0.80;0.80;;;;;;;2.39;71.56;97177.91;299395;196;63009;-63
2021/03/16 04:23:16;;;;;;;0.90;0.90;;;;;;;2.28;73.41;97178.72;299395;220;63004;-59
2021/03/16 04:28:17;;;;;;;0.80;0.80;;;;;;;2.16;74.08;97183.25;299395;228;63009;-64
2021/03/16 04:33:19;;;;;;;0.80;0.80;;;;;;;2.17;73.75;97187.56;299395;270;63005;-64
2021/03/16 04:38:22;;;;;;;0.80;0.80;;;;;;;2.19;72.86;97196.19;299395;212;63009;-67
2021/03/16 04:43:23;;;;;;;0.90;0.90;;;;;;;2.17;72.62;97198.28;299395;207;63005;-59
2021/03/16 04:48:27;;;;;;;0.80;0.80;;;;;;;2.24;71.92;97209.69;299395;225;63009;-64
2021/03/16 04:53:28;;;;;;;0.80;0.80;;;;;;;2.16;72.36;97202.00;299417;222;63004;-60
2021/03/16 04:58:29;;;;;;;0.80;0.80;;;;;;;2.14;72.64;97209.44;299395;202;63009;-62
2021/03/16 05:03:31;;;;;;;0.70;0.70;;;;;;;2.20;72.08;97208.50;299395;205;63005;-60
2021/03/16 05:08:33;;;;;;;0.80;0.80;;;;;;;2.08;73.29;97210.38;299395;234;63009;-59
2021/03/16 05:13:34;;;;;;;0.70;0.70;;;;;;;2.15;72.32;97203.03;299395;224;63005;-59
2021/03/16 05:18:36;;;;;;;0.70;0.70;;;;;;;2.17;72.39;97222.38;299395;240;63009;-59
2021/03/16 05:23:38;;;;;;;0.70;0.70;;;;;;;2.10;72.91;97221.66;299395;239;63004;-60
2021/03/16 05:28:38;;;;;;;1.65;0.95;;;;;;;2.19;72.37;97223.75;299395;245;63009;-65
2021/03/16 05:33:39;;;;;;;1.02;1.02;;;;;;;2.18;72.36;97232.03;299395;228;63005;-64
2021/03/16 05:38:40;;;;;;;0.80;0.80;;;;;;;2.20;72.30;97251.34;299395;224;63009;-61
2021/03/16 05:43:42;;;;;;;0.80;0.80;;;;;;;2.21;72.29;97258.34;299395;218;63005;-66
2021/03/16 05:48:51;;;;;;;0.80;0.80;;;;;;;2.26;72.02;97266.50;299395;227;63009;-66
2021/03/16 05:53:53;;;;;;;0.70;0.70;;;;;;;2.28;71.65;97265.22;299395;215;63004;-61
2021/03/16 05:58:55;;;;;;;0.93;0.93;;;;;;;2.29;71.76;97274.06;299395;228;63009;-64
2021/03/16 06:03:56;;;;;;;0.80;0.80;;;;;;;2.33;71.65;97283.28;299395;206;63005;-63
2021/03/16 06:08:57;;;;;;;0.80;0.80;;;;;;;2.33;71.37;97281.41;299395;237;63008;-63
2021/03/16 06:13:58;;;;;;;0.80;0.80;;;;;;;2.37;71.43;97278.28;299395;300;63004;-61
2021/03/16 06:18:59;;;;;;;0.80;0.80;;;;;;;2.41;70.96;97280.28;299395;208;63009;-66
2021/03/16 06:24:01;;;;;;;1.20;1.20;;;;;;;2.50;71.12;97294.94;299395;235;63004;-61
2021/03/16 06:29:11;;;;;;;0.85;0.85;;;;;;;2.47;71.06;97295.37;299395;196;63009;-62
2021/03/16 06:34:23;;;;;;;0.70;0.70;;;;;;;2.42;71.39;97297.97;299395;220;63005;-65
2021/03/16 06:39:25;;;;;;;0.80;0.80;;;;;;;2.42;71.24;97303.31;299395;207;63008;-61
2021/03/16 06:44:25;;;;;;;0.95;0.95;;;;;;;2.40;71.96;97308.09;299395;204;63004;-62
2021/03/16 06:49:33;;;;;;;0.80;0.80;;;;;;;2.46;71.55;97320.53;299395;218;63009;-61
2021/03/16 06:54:33;;;;;;;0.70;0.70;;;;;;;2.42;72.45;97329.28;299395;195;63004;-61
2021/03/16 06:59:34;;;;;;;1.65;0.80;;;;;;;2.54;71.37;97333.59;299395;226;63009;-63
2021/03/16 07:04:45;;;;;;;0.70;0.70;;;;;;;2.43;72.91;97341.59;299395;224;63005;-63
2021/03/16 07:09:47;;;;;;;0.70;0.70;;;;;;;2.42;72.77;97354.22;299395;224;63009;-60
2021/03/16 07:14:49;;;;;;;0.80;0.80;;;;;;;2.38;73.63;97361.06;299395;227;63004;-59
2021/03/16 07:19:53;;;;;;;0.70;0.70;;;;;;;2.38;73.90;97366.44;299395;215;63009;-59
2021/03/16 07:24:58;;;;;;;0.70;0.70;;;;;;;2.32;75.24;97380.72;299417;250;63005;-66
2021/03/16 07:30:00;;;;;;;;;;;;;;;2.06;77.25;97389.13;299996;983;6004;-62
2021/03/16 07:35:03;;;;;;;1.45;1.35;;;;;;;1.87;77.96;97394.50;299400;217;63009;-63
2021/03/16 07:40:07;;;;;;;0.80;0.80;;;;;;;1.74;79.56;97402.69;299395;279;63005;-58
2021/03/16 07:45:09;;;;;;;0.80;0.80;;;;;;;1.97;77.98;97402.81;299417;217;63009;-64
2021/03/16 07:50:12;;;;;;;0.80;0.80;;;;;;;2.21;76.99;97402.91;299395;251;63005;-63
2021/03/16 07:55:29;;;;;;;0.70;0.70;;;;;;;2.48;75.59;97414.06;299395;259;63009;-63
2021/03/16 08:00:30;;;;;;;0.80;0.80;;;;;;;2.51;75.18;97414.41;299395;203;63004;-62
2021/03/16 08:05:46;;;;;;;1.10;1.00;;;;;;;2.59;74.68;97422.13;299395;240;63009;-63
2021/03/16 08:10:47;;;;;;;;;;;;;;;2.73;73.91;97413.91;299996;982;6000;-68
2021/03/16 08:15:50;;;;;;;0.90;0.90;;;;;;;2.83;73.74;97427.53;299400;216;63004;-62
2021/03/16 08:20:51;;;;;;;0.80;0.80;;;;;;;2.77;72.99;97433.84;299395;212;63009;-67
2021/03/16 08:25:53;;;;;;;1.08;1.08;;;;;;;2.78;72.49;97424.72;299395;210;63005;-63
2021/03/16 08:30:55;;;;;;;0.90;0.90;;;;;;;2.85;71.89;97436.16;299395;196;63008;-57
2021/03/16 08:35:57;;;;;;;0.80;0.80;;;;;;;2.88;71.84;97427.66;299395;236;63004;-65
2021/03/16 08:41:24;;;;;;;0.70;0.70;;;;;;;2.91;71.44;97424.53;299395;209;63009;-61
2021/03/16 08:46:35;;;;;;;0.70;0.70;;;;;;;3.00;71.06;97428.50;299395;236;63004;-61
2021/03/16 08:51:37;;;;;;;0.70;0.70;;;;;;;3.14;70.63;97434.44;299395;203;63009;-62
2021/03/16 08:56:39;;;;;;;0.70;0.70;;;;;;;3.17;70.32;97445.53;299395;235;63005;-64
2021/03/16 09:01:48;;;;;;;0.70;0.70;;;;;;;3.20;70.35;97442.38;299395;276;63009;-58
2021/03/16 09:06:53;;;;;;;1.48;1.40;;;;;;;3.12;71.16;97448.09;299395;214;63004;-57
2021/03/16 09:11:56;;;;;;;0.70;0.70;;;;;;;3.03;71.72;97457.53;299417;223;63009;-61
2021/03/16 09:16:57;;;;;;;1.47;1.47;;;;;;;3.02;71.81;97459.41;299417;216;63005;-61
2021/03/16 09:22:01;;;;;;;0.70;0.70;;;;;;;3.01;72.29;97468.50;299395;240;63009;-57
2021/03/16 09:27:08;;;;;;;0.77;0.77;;;;;;;2.92;74.30;97485.13;299417;271;63005;-61
2021/03/16 09:32:11;;;;;;;0.75;0.75;;;;;;;2.55;76.83;97485.25;299396;231;63009;-61
2021/03/16 09:37:18;;;;;;;0.70;0.70;;;;;;;2.42;78.89;97485.44;299396;207;63004;-61
2021/03/16 09:42:31;;;;;;;0.80;0.80;;;;;;;2.55;78.62;97506.69;299396;278;63009;-64
2021/03/16 09:47:32;;;;;;;0.80;0.80;;;;;;;2.45;79.43;97500.22;299396;228;63005;-61
2021/03/16 09:52:34;;;;;;;0.70;0.70;;;;;;;2.35;79.99;97506.13;299396;225;63008;-63
2021/03/16 09:57:37;;;;;;;0.73;0.73;;;;;;;2.37;80.93;97504.06;299396;301;63004;-59
2021/03/16 10:02:40;;;;;;;0.80;0.80;;;;;;;2.35;81.13;97503.47;299396;235;63009;-62
2021/03/16 10:07:42;;;;;;;0.80;0.80;;;;;;;2.46;80.11;97499.19;299396;210;63004;-58
2021/03/16 10:13:08;;;;;;;0.70;0.70;;;;;;;2.18;81.97;97494.41;299397;216;63009;-61
2021/03/16 10:18:12;;;;;;;0.70;0.70;;;;;;;2.21;81.62;97502.78;299419;221;63005;-60
2021/03/16 10:23:20;;;;;;;0.70;0.70;;;;;;;2.51;81.18;97499.31;299418;221;63009;-59
2021/03/16 10:28:36;;;;;;;0.70;0.70;;;;;;;2.73;80.18;97486.25;299396;203;63004;-62
2021/03/16 10:33:38;;;;;;;0.70;0.70;;;;;;;2.99;77.92;97488.53;299396;230;63009;-60
2021/03/16 10:38:43;;;;;;;0.80;0.80;;;;;;;3.11;77.64;97484.03;299396;221;63005;-67
2021/03/16 10:43:45;;;;;;;0.80;0.80;;;;;;;3.23;77.25;97479.47;299396;265;63009;-61
2021/03/16 10:48:47;;;;;;;0.80;0.80;;;;;;;3.30;74.67;97488.22;299396;233;63005;-68
2021/03/16 10:53:48;;;;;;;1.27;1.00;;;;;;;3.33;74.44;97487.78;299396;234;63009;-55
2021/03/16 10:58:51;;;;;;;0.80;0.80;;;;;;;3.22;75.90;97485.87;299396;220;63004;-60
2021/03/16 11:03:56;;;;;;;0.73;0.73;;;;;;;3.15;75.32;97490.53;299396;211;63009;-59
2021/03/16 11:08:58;;;;;;;0.80;0.80;;;;;;;3.18;75.60;97490.06;299397;205;63005;-62
2021/03/16 11:13:59;;;;;;;1.35;1.35;;;;;;;3.41;74.51;97491.97;299397;249;63009;-59
2021/03/16 11:19:01;;;;;;;0.80;0.80;;;;;;;3.44;73.45;97493.37;299395;208;63005;-63
2021/03/16 11:24:02;;;;;;;0.90;0.90;;;;;;;3.60;69.92;97493.47;299395;287;63009;-59
2021/03/16 11:29:04;;;;;;;0.75;0.75;;;;;;;3.53;71.18;97491.97;299395;196;63004;-61
2021/03/16 11:34:06;;;;;;;0.70;0.70;;;;;;;3.54;70.54;97496.28;299395;253;63017;-59
2021/03/16 11:39:07;;;;;;;0.80;0.80;;;;;;;3.47;70.91;97490.22;299395;224;63005;-62
2021/03/16 11:44:08;;;;;;;0.80;0.80;;;;;;;3.34;72.29;97497.44;299395;282;63009;-62
2021/03/16 11:49:11;;;;;;;1.33;1.33;;;;;;;3.48;69.08;97494.53;299395;208;63005;-59
2021/03/16 11:54:12;;;;;;;0.80;0.80;;;;;;;3.32;70.50;97502.22;299395;256;63009;-59
2021/03/16 11:59:15;;;;;;;0.77;0.77;;;;;;;3.29;69.80;97497.31;299395;316;63004;-65
2021/03/16 12:04:16;;;;;;;0.70;0.70;;;;;;;3.45;68.99;97495.00;299395;218;63009;-60
2021/03/16 12:09:17;;;;;;;0.73;0.73;;;;;;;3.63;67.00;97494.88;299395;223;63005;-59
2021/03/16 12:14:18;;;;;;;0.90;0.90;;;;;;;3.76;65.41;97478.56;299395;219;63008;-60
2021/03/16 12:19:21;;;;;;;0.75;0.75;;;;;;;3.87;67.37;97480.38;299395;357;63004;-59
2021/03/16 12:24:22;;;;;;;0.70;0.70;;;;;;;4.27;63.60;97467.00;299395;328;63009;-63
2021/03/16 12:29:23;;;;;;;0.70;0.70;;;;;;;4.35;62.70;97460.44;299395;283;63004;-64
2021/03/16 12:34:24;;;;;;;0.80;0.80;;;;;;;4.41;62.01;97456.78;299395;241;63009;-64
2021/03/16 12:39:25;;;;;;;0.70;0.70;;;;;;;4.43;61.31;97454.69;299395;254;63005;-61
2021/03/16 12:44:26;;;;;;;0.70;0.70;;;;;;;4.48;60.00;97449.41;299395;353;63008;-59
2021/03/16 12:49:27;;;;;;;1.15;1.15;;;;;;;4.45;58.62;97447.19;299395;202;63004;-63
2021/03/16 12:54:28;;;;;;;0.70;0.70;;;;;;;4.41;57.26;97445.22;299395;254;63020;-59
2021/03/16 12:59:29;;;;;;;0.70;0.70;;;;;;;4.31;56.66;97435.91;299395;296;63015;-62
2021/03/16 13:04:30;;;;;;;0.75;0.75;;;;;;;4.38;56.62;97441.97;299395;230;63009;-59
2021/03/16 13:09:32;;;;;;;0.80;0.80;;;;;;;4.50;55.65;97433.88;299395;331;63005;-61
2021/03/16 13:14:33;;;;;;;0.70;0.70;;;;;;;4.56;55.19;97424.81;299395;266;63008;-57
2021/03/16 13:19:34;;;;;;;0.70;0.70;;;;;;;4.59;55.00;97431.56;299395;220;63004;-59
2021/03/16 13:24:38;;;;;;;0.70;0.70;;;;;;;4.54;55.29;97429.59;299395;262;63009;-59
2021/03/16 13:29:41;;;;;;;0.80;0.80;;;;;;;4.62;55.33;97425.72;299439;318;63005;-62
2021/03/16 13:34:42;;;;;;;0.70;0.70;;;;;;;4.82;54.61;97419.91;299395;205;63009;-58
2021/03/16 13:39:43;;;;;;;0.70;0.70;;;;;;;4.87;54.89;97423.47;299394;196;64009;-58
2021/03/16 13:44:44;;;;;;;0.90;0.90;;;;;;;4.96;54.87;97411.25;299395;284;63009;-59
2021/03/16 13:49:45;;;;;;;0.70;0.70;;;;;;;4.93;55.48;97405.53;299395;204;63004;-58
2021/03/16 13:54:46;;;;;;;0.70;0.70;;;;;;;4.94;55.73;97412.56;299395;215;63017;-58
2021/03/16 13:59:47;;;;;;;0.70;0.70;;;;;;;5.03;53.62;97405.72;299395;236;63005;-58
2021/03/16 14:04:48;;;;;;;0.70;0.70;;;;;;;5.01;53.55;97413.22;299395;254;63009;-62
2021/03/16 14:09:49;;;;;;;0.70;0.70;;;;;;;5.11;52.96;97405.31;299395;236;63005;-58
2021/03/16 14:14:54;;;;;;;0.70;0.70;;;;;;;5.24;55.01;97415.72;299395;211;63009;-56
2021/03/16 14:19:55;;;;;;;;;;;;;;;5.36;53.84;97404.88;299996;983;6000;-58
2021/03/16 14:24:56;;;;;;;0.70;0.70;;;;;;;5.25;54.27;97403.91;299400;301;63005;-59
2021/03/16 14:29:58;;;;;;;0.70;0.70;;;;;;;5.18;55.85;97408.66;299395;233;63009;-59
2021/03/16 14:34:59;;;;;;;0.70;0.70;;;;;;;5.42;54.09;97397.69;299395;246;63004;-66
2021/03/16 14:40:02;;;;;;;0.70;0.70;;;;;;;5.81;52.02;97376.97;299395;330;63009;-64
2021/03/16 14:45:05;;;;;;;0.70;0.70;;;;;;;6.20;49.37;97366.94;299395;217;63005;-59
2021/03/16 14:50:10;;;;;;;0.70;0.70;;;;;;;6.20;49.10;97362.38;299395;236;63009;-59
2021/03/16 14:55:11;;;;;;;0.70;0.70;;;;;;;6.26;50.30;97369.41;299395;213;63005;-62
2021/03/16 15:00:14;;;;;;;0.70;0.70;;;;;;;6.24;48.78;97357.25;299395;198;63009;-59
2021/03/16 15:05:16;;;;;;;0.70;0.70;;;;;;;5.93;50.85;97366.88;299395;224;63004;-57
2021/03/16 15:10:20;;;;;;;0.70;0.70;;;;;;;5.79;51.57;97366.44;299395;207;63009;-56
2021/03/16 15:15:22;;;;;;;0.70;0.70;;;;;;;6.32;48.61;97340.63;299417;242;63005;-56
2021/03/16 15:20:23;;;;;;;0.70;0.70;;;;;;;6.51;47.96;97341.91;299395;215;63008;-58
2021/03/16 15:25:31;;;;;;;0.70;0.70;;;;;;;6.22;47.84;97332.47;299395;222;63004;-59
2021/03/16 15:30:33;;;;;;;0.70;0.70;;;;;;;5.79;51.74;97355.66;299395;242;63009;-58
2021/03/16 15:35:34;;;;;;;0.70;0.70;;;;;;;5.63;53.10;97356.53;299395;226;63004;-61
2021/03/16 15:40:35;;;;;;;0.60;0.60;;;;;;;5.39;54.44;97354.06;299395;238;63018;-52
2021/03/16 15:45:36;;;;;;;0.70;0.70;;;;;;;5.17;55.79;97361.28;299395;213;63005;-59
2021/03/16 15:50:38;;;;;;;0.70;0.70;;;;;;;4.96;58.46;97370.09;299395;283;63008;-58
2021/03/16 15:55:41;;;;;;;0.70;0.70;;;;;;;4.98;56.68;97360.72;299395;308;63004;-58
2021/03/16 16:00:44;;;;;;;0.70;0.70;;;;;;;4.68;58.78;97366.44;299395;269;63009;-59
2021/03/16 16:05:45;;;;;;;0.70;0.70;;;;;;;4.70;58.23;97361.63;299395;222;63004;-60
2021/03/16 16:10:45;;;;;;;0.70;0.70;;;;;;;4.51;59.71;97372.84;299395;241;63009;-61
2021/03/16 16:15:47;;;;;;;0.70;0.70;;;;;;;4.56;59.80;97363.00;299395;298;63005;-58
2021/03/16 16:20:48;;;;;;;1.85;0.90;;;;;;;4.41;61.23;97381.56;299395;220;63008;-63
2021/03/16 16:25:50;;;;;;;0.70;0.70;;;;;;;4.34;62.75;97397.00;299395;293;63004;-61
2021/03/16 16:30:52;;;;;;;3.55;3.35;;;;;;;4.18;66.25;97420.06;299395;215;63009;-62
2021/03/16 16:35:54;;;;;;;0.80;0.80;;;;;;;3.84;68.50;97408.38;299395;279;63005;-59
2021/03/16 16:40:57;;;;;;;0.70;0.70;;;;;;;3.36;70.98;97389.94;299395;306;63009;-59
2021/03/16 16:46:01;;;;;;;0.70;0.70;;;;;;;3.13;73.77;97396.09;299395;234;63005;-59
2021/03/16 16:51:02;;;;;;;0.70;0.70;;;;;;;3.11;73.98;97381.31;299417;296;63009;-59
2021/03/16 16:56:05;;;;;;;0.70;0.70;;;;;;;2.99;75.40;97389.34;299394;203;64004;-58
2021/03/16 17:01:06;;;;;;;0.70;0.70;;;;;;;2.92;76.13;97394.00;299395;204;63009;-59
2021/03/16 17:06:06;;;;;;;0.80;0.80;;;;;;;2.95;74.62;97383.62;299394;362;64005;-60
2021/03/16 17:11:10;;;;;;;0.70;0.70;;;;;;;2.93;75.99;97379.53;299395;214;63009;-60
2021/03/16 17:16:11;;;;;;;0.70;0.70;;;;;;;3.00;74.42;97388.31;299417;379;63005;-58
2021/03/16 17:21:12;;;;;;;0.70;0.70;;;;;;;3.08;73.86;97385.28;299395;367;63009;-59
2021/03/16 17:26:13;;;;;;;0.70;0.70;;;;;;;3.20;72.91;97395.97;299395;213;63004;-59
2021/03/16 17:31:15;;;;;;;0.70;0.70;;;;;;;3.20;73.23;97406.72;299395;214;63009;-59
2021/03/16 17:36:16;;;;;;;0.70;0.70;;;;;;;3.07;75.05;97402.41;299395;362;63011;-57
2021/03/16 17:41:17;;;;;;;0.70;0.70;;;;;;;2.89;78.00;97410.53;299395;303;63009;-59
2021/03/16 17:46:18;;;;;;;0.70;0.70;;;;;;;2.97;77.15;97418.25;299395;208;63005;-59
2021/03/16 17:51:19;;;;;;;0.70;0.70;;;;;;;2.91;78.95;97425.34;299395;306;63014;-59
2021/03/16 17:56:20;;;;;;;0.70;0.70;;;;;;;2.76;78.26;97403.53;299395;196;63004;-58
2021/03/16 18:01:22;;;;;;;0.70;0.70;;;;;;;2.47;80.22;97410.56;299395;233;63009;-57
2021/03/16 18:06:23;;;;;;;0.70;0.70;;;;;;;2.61;78.78;97409.34;299395;202;63005;-61
2021/03/16 18:11:24;;;;;;;0.70;0.70;;;;;;;2.62;78.46;97415.50;299395;292;63009;-60
2021/03/16 18:16:25;;;;;;;0.70;0.70;;;;;;;2.67;78.83;97427.16;299395;212;63005;-58
2021/03/16 18:21:27;;;;;;;0.80;0.80;;;;;;;2.62;79.64;97426.22;299395;197;63009;-58
2021/03/16 18:26:29;;;;;;;0.75;0.75;;;;;;;2.64;80.47;97416.91;299395;269;63004;-58
2021/03/16 18:31:31;;;;;;;0.80;0.80;;;;;;;2.48;80.30;97408.69;299395;338;63009;-57
2021/03/16 18:36:33;;;;;;;0.80;0.80;;;;;;;2.33;81.10;97412.63;299395;367;63005;-57
2021/03/16 18:41:33;;;;;;;0.70;0.70;;;;;;;2.30;81.41;97412.28;299395;320;63008;-57
2021/03/16 18:46:35;;;;;;;0.80;0.80;;;;;;;2.24;81.41;97422.03;299395;240;63000;-57
2021/03/16 18:51:36;;;;;;;0.70;0.70;;;;;;;2.35;81.76;97421.25;299395;357;63009;-58
2021/03/16 18:56:37;;;;;;;0.70;0.70;;;;;;;2.55;80.33;97429.00;299395;249;63004;-63
2021/03/16 19:01:39;;;;;;;0.70;0.70;;;;;;;2.43;80.31;97422.78;299395;315;63009;-55
2021/03/16 19:06:40;;;;;;;0.70;0.70;;;;;;;2.57;79.97;97424.22;299395;273;63005;-57
2021/03/16 19:11:44;;;;;;;0.70;0.70;;;;;;;2.39;81.54;97413.59;299395;202;63008;-60
2021/03/16 19:16:45;;;;;;;0.80;0.80;;;;;;;2.41;81.32;97419.53;299417;269;63004;-56
2021/03/16 19:21:46;;;;;;;0.70;0.70;;;;;;;2.47;80.99;97418.59;299394;234;64013;-56
2021/03/16 19:26:49;;;;;;;0.70;0.70;;;;;;;2.33;81.95;97406.47;299395;231;63004;-56
2021/03/16 19:31:50;;;;;;;0.70;0.70;;;;;;;2.30;82.24;97406.91;299395;199;63009;-57
2021/03/16 19:36:50;;;;;;;0.70;0.70;;;;;;;2.29;82.28;97395.37;299395;217;63005;-58
2021/03/16 19:41:51;;;;;;;0.80;0.80;;;;;;;2.28;82.64;97392.94;299394;204;64009;-57
2021/03/16 19:46:54;;;;;;;0.80;0.80;;;;;;;2.27;82.45;97393.97;299395;282;63004;-57
2021/03/16 19:51:55;;;;;;;0.80;0.80;;;;;;;2.44;81.02;97397.62;299395;199;63009;-57
2021/03/16 19:56:56;;;;;;;0.70;0.70;;;;;;;2.22;82.76;97393.84;299395;331;63005;-58
2021/03/16 20:01:57;;;;;;;0.70;0.70;;;;;;;2.25;82.28;97393.38;299395;327;63009;-57
2021/03/16 20:06:58;;;;;;;0.70;0.70;;;;;;;2.25;82.27;97390.72;299395;247;63005;-59
2021/03/16 20:12:00;;;;;;;0.80;0.80;;;;;;;2.23;82.10;97395.47;299395;225;63009;-58
2021/03/16 20:17:01;;;;;;;0.70;0.70;;;;;;;2.13;83.40;97389.84;299395;232;63004;-58
2021/03/16 20:22:03;;;;;;;0.70;0.70;;;;;;;2.18;82.36;97392.66;299395;202;63009;-58
2021/03/16 20:27:04;;;;;;;0.70;0.70;;;;;;;2.24;82.33;97394.44;299395;349;63005;-60
2021/03/16 20:32:06;;;;;;;0.70;0.70;;;;;;;2.23;82.41;97396.28;299395;320;63009;-59
2021/03/16 20:37:08;;;;;;;0.70;0.70;;;;;;;2.38;79.87;97395.88;299395;200;63005;-58
2021/03/16 20:42:10;;;;;;;0.80;0.80;;;;;;;2.33;80.53;97390.41;299395;225;63009;-59
2021/03/16 20:47:14;;;;;;;0.80;0.80;;;;;;;2.23;81.40;97395.47;299395;290;63004;-58
2021/03/16 20:52:16;;;;;;;0.70;0.70;;;;;;;2.26;81.38;97395.03;299417;215;63009;-59
2021/03/16 20:57:18;;;;;;;0.70;0.70;;;;;;;2.24;81.87;97394.44;299395;214;63005;-59
2021/03/16 21:02:22;;;;;;;0.70;0.70;;;;;;;2.21;81.95;97392.19;299395;196;63009;-58
2021/03/16 21:07:24;;;;;;;0.70;0.70;;;;;;;2.20;82.23;97395.94;299417;232;63005;-59
2021/03/16 21:12:25;;;;;;;0.70;0.70;;;;;;;2.18;82.06;97387.31;299395;316;63009;-59
2021/03/16 21:17:26;;;;;;;0.70;0.70;;;;;;;2.19;83.13;97384.41;299395;208;63004;-58
2021/03/16 21:22:30;;;;;;;0.70;0.70;;;;;;;2.24;82.39;97387.22;299395;231;63009;-62
2021/03/16 21:27:31;;;;;;;0.73;0.73;;;;;;;2.21;82.05;97381.50;299395;278;63005;-64
2021/03/16 21:32:34;;;;;;;0.70;0.70;;;;;;;2.23;82.01;97379.41;299395;240;63009;-57
2021/03/16 21:37:35;;;;;;;0.80;0.80;;;;;;;2.18;82.50;97387.31;299395;320;63004;-58
2021/03/16 21:42:37;;;;;;;0.70;0.70;;;;;;;2.14;83.30;97386.13;299395;219;63009;-57
2021/03/16 21:47:43;;;;;;;0.70;0.70;;;;;;;2.14;83.44;97380.75;299395;270;63004;-57
2021/03/16 21:52:44;;;;;;;0.80;0.80;;;;;;;2.27;82.26;97380.59;299395;237;63009;-58
2021/03/16 21:57:46;;;;;;;0.70;0.70;;;;;;;2.15;82.48;97371.69;299395;222;63005;-58
2021/03/16 22:02:47;;;;;;;0.80;0.80;;;;;;;2.21;81.78;97376.12;299396;218;63008;-58
2021/03/16 22:07:49;;;;;;;0.70;0.70;;;;;;;2.20;82.38;97369.16;299396;214;63004;-59
2021/03/16 22:12:50;;;;;;;0.70;0.70;;;;;;;2.21;82.18;97368.09;299396;241;63009;-58
2021/03/16 22:17:51;;;;;;;0.70;0.70;;;;;;;2.10;83.00;97360.84;299396;253;63019;-59
2021/03/16 22:22:52;;;;;;;0.70;0.70;;;;;;;2.13;82.45;97360.38;299396;247;63009;-59
2021/03/16 22:27:53;;;;;;;0.80;0.80;;;;;;;2.12;82.75;97356.06;299396;217;63005;-58
2021/03/16 22:32:54;;;;;;;0.80;0.80;;;;;;;2.07;82.86;97353.28;299396;203;63009;-52
2021/03/16 22:37:55;;;;;;;0.80;0.80;;;;;;;2.13;82.01;97347.81;299396;213;63004;-58
2021/03/16 22:42:56;;;;;;;0.70;0.70;;;;;;;2.15;82.09;97344.91;299396;221;63018;-58
2021/03/16 22:47:58;;;;;;;0.80;0.80;;;;;;;2.14;81.78;97354.00;299397;205;63014;-60
2021/03/16 22:52:59;;;;;;;0.80;0.80;;;;;;;2.18;81.46;97339.94;299397;208;63009;-59
2021/03/16 22:58:00;;;;;;;0.80;0.80;;;;;;;2.18;81.24;97339.09;299396;202;63000;-58
2021/03/16 23:03:02;;;;;;;0.70;0.70;;;;;;;2.17;81.29;97332.94;299397;297;63009;-58
2021/03/16 23:08:04;;;;;;;0.73;0.73;;;;;;;2.14;81.33;97332.56;299396;275;63004;-58
2021/03/16 23:13:05;;;;;;;0.80;0.80;;;;;;;2.10;81.41;97337.56;299396;359;63009;-58
2021/03/16 23:18:06;;;;;;;0.70;0.70;;;;;;;2.13;81.87;97333.63;299396;238;63010;-58
2021/03/16 23:23:08;;;;;;;0.70;0.70;;;;;;;2.18;81.57;97333.75;299397;223;63009;-59
2021/03/16 23:28:10;;;;;;;0.70;0.70;;;;;;;2.07;82.52;97331.88;299396;206;63005;-58
2021/03/16 23:33:20;;;;;;;0.70;0.70;;;;;;;2.10;82.06;97323.38;299396;213;63009;-58
2021/03/16 23:38:22;;;;;;;0.70;0.70;;;;;;;2.07;82.78;97323.84;299396;258;63004;-58
2021/03/16 23:43:29;;;;;;;0.70;0.70;;;;;;;2.07;82.29;97315.81;299397;302;63009;-57
2021/03/16 23:48:31;;;;;;;0.80;0.80;;;;;;;2.08;82.28;97312.09;299397;218;63005;-57
2021/03/16 23:53:37;;;;;;;0.80;0.80;;;;;;;2.18;81.68;97315.00;299395;230;63009;-58
2021/03/16 23:58:38;;;;;;;0.70;0.70;;;;;;;2.13;81.98;97314.88;299395;198;63005;-58
